Startpagina
METAR-TAF:

METAR-TAF

Vliegvelden :

Aéroport de Lille-Lesquin

Rijsel, Frankrijk

breedte: 50-34N, lengte: 003-06E, hoogte: 48 m

Actueel weer

Dit bericht is 21 minuten geleden gemaakt, om 12:00 UTC
Wind 4 kt uit het oostzuidoosten, variërend tussen het oostnoordoosten en het zuidzuidoosten
Temperatuur 5°C
Vochtigheid 70%
Druk 1016 hPa
Zicht 10 km of meer
geen wolken onder 1500 m en geen cumulonimbus

METAR: LFQQ 211200Z AUTO 12004KT 060V160 CAVOK 05/00 Q1016 NOSIG

Tijdstip: 13:21 (12:21 UTC)

Verwachting

Dit bericht is 1 uur en het 21 minuten geleden gemaakt, om 11:00 UTC
Verwachting geldig van 21 om 12 UTC tot 22 om 18 UTC
Wind 5 kt uit het oosten
Zicht: 8000 m
Wijzigt naar
van 22 om 01 UTC tot 22 om 04 UTC
Zicht: 3000 m
nevel
Kans 40%
van 22 om 04 UTC tot 22 om 08 UTC
Zicht: 0500 m
mist
Wijzigt naar
van 22 om 08 UTC tot 22 om 12 UTC
Zicht 10 km of meer

TAF: LFQQ 211100Z 2112/2218 09005KT 8000 NSC BECMG 2201/2204 3000 BR PROB40 2204/2208 0500 FG VV/// BECMG 2208/2212 9999 NSW

Waarnemingen en weersverwachtingen van meer dan 4000 vliegvelden (METAR en TAF).

De beschikbare stations zijn de gele en rode punten op de kaart.

Ga met uw muis naar het station om de naam te zien.

Klik dan om waarnemingen en weersverwachtingen te zien.

kaart wijzigen: klik op de groene knoppen met een zwart kruis om in te zoomen, op de groene knop met een streepje om uit te zoomen of op de groene pijlen voor aangrenzende kaarten.


METAR-TAF: